Time;durP1;ratioP1;P1;durP2;ratioP2;P2;SDS_P1;SDS_P2;PMS_P1;PMS_P2;Temp;Humidity;BMP_temperature;BMP_pressure;BME280_temperature;BME280_humidity;BME280_pressure;Samples;Min_cycle;Max_cycle;Signal;HPM_P1;HPM_P2
2023/12/09 00:03:09;;;;;;;11.50;4.72;;;;;;;;;;10432039;28;20048;-77
2023/12/09 00:08:12;;;;;;;10.35;4.07;;;;;;;;;;10432426;28;20171;-76
2023/12/09 00:13:14;;;;;;;13.88;3.83;;;;;;;;;;10432501;28;20540;-77
2023/12/09 00:18:18;;;;;;;9.88;4.72;;;;;;;;;;10428986;28;20107;-76
2023/12/09 00:23:21;;;;;;;11.73;4.57;;;;;;;;;;10433379;28;20064;-74
2023/12/09 00:28:24;;;;;;;13.50;5.60;;;;;;;;;;10434227;28;20061;-77
2023/12/09 00:33:28;;;;;;;10.10;3.50;;;;;;;;;;10431246;28;20045;-75
2023/12/09 00:38:31;;;;;;;15.95;5.43;;;;;;;;;;10432408;28;20057;-76
2023/12/09 00:43:33;;;;;;;11.75;5.38;;;;;;;;;;10432970;28;20128;-76
2023/12/09 00:48:37;;;;;;;14.68;6.18;;;;;;;;;;10430766;28;20117;-77
2023/12/09 00:53:40;;;;;;;12.48;5.00;;;;;;;;;;10434721;28;20049;-78
2023/12/09 00:58:43;;;;;;;6.68;2.78;;;;;;;;;;10425156;28;20483;-76
2023/12/09 01:03:47;;;;;;;11.88;5.43;;;;;;;;;;10427416;28;20120;-76
2023/12/09 01:08:49;;;;;;;;;;;;;;;;;;10431019;28;20407;-76
2023/12/09 01:13:52;;;;;;;14.02;5.47;;;;;;;;;;10434044;28;19978;-76
2023/12/09 01:18:56;;;;;;;14.25;6.30;;;;;;;;;;10423329;28;20139;-76
2023/12/09 01:23:58;;;;;;;12.70;5.40;;;;;;;;;;10437748;28;20037;-75
2023/12/09 01:29:03;;;;;;;11.15;3.58;;;;;;;;;;10434422;28;20065;-76
2023/12/09 01:34:05;;;;;;;;;;;;;;;;;;10428528;28;20446;-76
2023/12/09 01:39:11;;;;;;;8.95;3.47;;;;;;;;;;10422262;28;20390;-76
2023/12/09 01:44:14;;;;;;;15.30;6.70;;;;;;;;;;10433580;28;20179;-76
2023/12/09 01:49:16;;;;;;;10.05;3.25;;;;;;;;;;10421044;28;20069;-75
2023/12/09 01:54:21;;;;;;;14.73;6.17;;;;;;;;;;10430950;28;20470;-76
2023/12/09 01:59:24;;;;;;;14.48;6.07;;;;;;;;;;10428620;28;20407;-75
2023/12/09 02:04:27;;;;;;;14.18;6.00;;;;;;;;;;10423848;28;20123;-75
2023/12/09 02:09:31;;;;;;;15.10;6.18;;;;;;;;;;10432055;28;20490;-75
2023/12/09 02:14:34;;;;;;;;;;;;;;;;;;10431435;28;20052;-74
2023/12/09 02:19:37;;;;;;;15.65;6.10;;;;;;;;;;10426387;28;20011;-74
2023/12/09 02:24:41;;;;;;;20.85;7.55;;;;;;;;;;10431304;28;20041;-75
2023/12/09 02:29:51;;;;;;;11.30;4.72;;;;;;;;;;10430501;28;20184;-74
2023/12/09 02:34:54;;;;;;;11.95;5.15;;;;;;;;;;10425096;28;20071;-74
2023/12/09 02:39:59;;;;;;;12.23;4.90;;;;;;;;;;10430626;28;20049;-75
2023/12/09 02:45:02;;;;;;;15.32;6.10;;;;;;;;;;10431424;28;20121;-75
2023/12/09 02:50:05;;;;;;;15.95;6.18;;;;;;;;;;10422119;28;20044;-74
2023/12/09 02:55:09;;;;;;;9.23;3.75;;;;;;;;;;10425622;28;20068;-75
2023/12/09 03:00:13;;;;;;;14.52;6.13;;;;;;;;;;10434605;28;20040;-78
2023/12/09 03:05:15;;;;;;;11.73;4.35;;;;;;;;;;10423805;28;20045;-76
2023/12/09 03:10:19;;;;;;;12.60;5.05;;;;;;;;;;10427625;28;20049;-76
2023/12/09 03:15:22;;;;;;;12.75;4.63;;;;;;;;;;10428170;28;20077;-76
2023/12/09 03:20:25;;;;;;;9.00;3.58;;;;;;;;;;10421850;28;20143;-78
2023/12/09 03:25:29;;;;;;;12.10;5.32;;;;;;;;;;10420523;28;20038;-78
2023/12/09 03:30:32;;;;;;;13.27;5.60;;;;;;;;;;10427976;28;20052;-77
2023/12/09 03:35:34;;;;;;;8.40;3.92;;;;;;;;;;10423359;28;20716;-77
2023/12/09 03:40:38;;;;;;;11.95;5.00;;;;;;;;;;10425424;28;20124;-76
2023/12/09 03:45:41;;;;;;;10.05;4.72;;;;;;;;;;10428137;28;20520;-77
2023/12/09 03:50:44;;;;;;;10.75;4.30;;;;;;;;;;10430291;28;20043;-76
2023/12/09 03:55:49;;;;;;;12.05;4.13;;;;;;;;;;10421174;28;20128;-77
2023/12/09 04:00:51;;;;;;;13.18;5.68;;;;;;;;;;10438762;28;20121;-77
2023/12/09 04:05:54;;;;;;;8.65;3.80;;;;;;;;;;10439245;28;20041;-76
2023/12/09 04:10:58;;;;;;;6.53;2.75;;;;;;;;;;10434157;28;20045;-76
2023/12/09 04:16:01;;;;;;;18.98;5.47;;;;;;;;;;10429435;28;21136;-76
2023/12/09 04:21:04;;;;;;;9.43;3.58;;;;;;;;;;10441598;28;20122;-74
2023/12/09 04:26:08;;;;;;;13.85;5.03;;;;;;;;;;10431685;28;20055;-75
2023/12/09 04:31:11;;;;;;;15.05;5.25;;;;;;;;;;10431540;28;20053;-75
2023/12/09 04:36:13;;;;;;;5.28;2.00;;;;;;;;;;10435840;28;20442;-75
2023/12/09 04:41:17;;;;;;;13.90;4.95;;;;;;;;;;10428335;28;20048;-74
2023/12/09 04:46:20;;;;;;;11.18;4.75;;;;;;;;;;10426811;28;20068;-75
2023/12/09 04:51:23;;;;;;;13.65;4.55;;;;;;;;;;10431528;28;20037;-74
2023/12/09 04:56:27;;;;;;;14.32;5.10;;;;;;;;;;10434260;28;20521;-74
2023/12/09 05:01:30;;;;;;;12.35;4.50;;;;;;;;;;10429425;28;20131;-74
2023/12/09 05:06:32;;;;;;;13.13;4.32;;;;;;;;;;10434343;28;20049;-74
2023/12/09 05:11:36;;;;;;;11.68;3.72;;;;;;;;;;10437957;28;20361;-73
2023/12/09 05:16:39;;;;;;;13.82;4.95;;;;;;;;;;10443503;28;20125;-75
2023/12/09 05:21:42;;;;;;;9.90;3.70;;;;;;;;;;10434268;28;20059;-76
2023/12/09 05:26:46;;;;;;;15.70;4.75;;;;;;;;;;10434282;28;20052;-75
2023/12/09 05:31:49;;;;;;;14.32;4.70;;;;;;;;;;10430314;28;20045;-76
2023/12/09 05:36:52;;;;;;;11.93;4.07;;;;;;;;;;10444277;28;20049;-75
2023/12/09 05:41:56;;;;;;;12.23;4.57;;;;;;;;;;10430035;28;20084;-76
2023/12/09 05:46:59;;;;;;;10.57;3.72;;;;;;;;;;10432448;28;20064;-75
2023/12/09 05:52:01;;;;;;;3.80;1.58;;;;;;;;;;10432019;28;20048;-75
2023/12/09 05:57:05;;;;;;;17.20;4.15;;;;;;;;;;10425361;28;20101;-76
2023/12/09 06:02:08;;;;;;;12.15;4.43;;;;;;;;;;10430310;28;20495;-76
2023/12/09 06:07:11;;;;;;;10.50;3.38;;;;;;;;;;10423923;28;20055;-76
2023/12/09 06:12:15;;;;;;;10.20;3.80;;;;;;;;;;10432568;28;20048;-75
2023/12/09 06:17:17;;;;;;;3.00;1.58;;;;;;;;;;10428484;28;20115;-76
2023/12/09 06:22:20;;;;;;;9.65;3.28;;;;;;;;;;10433208;28;20065;-77
2023/12/09 06:27:25;;;;;;;5.97;0.90;;;;;;;;;;10427837;28;20131;-75
2023/12/09 06:32:28;;;;;;;4.78;1.83;;;;;;;;;;10430258;28;20387;-76
2023/12/09 06:37:31;;;;;;;1.75;1.27;;;;;;;;;;10429199;28;20127;-75
2023/12/09 06:42:37;;;;;;;9.00;2.75;;;;;;;;;;10429823;28;20048;-76
2023/12/09 06:47:39;;;;;;;8.52;1.23;;;;;;;;;;10431523;28;20045;-75
2023/12/09 06:52:42;;;;;;;7.30;3.22;;;;;;;;;;10434197;28;20037;-76
2023/12/09 06:57:46;;;;;;;8.73;3.15;;;;;;;;;;10431932;28;20049;-77
2023/12/09 07:02:49;;;;;;;7.00;2.83;;;;;;;;;;10428445;28;20072;-76
2023/12/09 07:08:01;;;;;;;7.43;2.72;;;;;;;;;;10419043;28;20536;-76
2023/12/09 07:13:05;;;;;;;13.75;4.20;;;;;;;;;;10434877;28;20470;-75
2023/12/09 07:18:08;;;;;;;9.80;2.65;;;;;;;;;;10424063;28;20517;-74
2023/12/09 07:23:11;;;;;;;1.77;1.33;;;;;;;;;;10429877;28;20025;-76
2023/12/09 07:28:15;;;;;;;1.63;1.10;;;;;;;;;;10424135;28;20046;-74
2023/12/09 07:33:17;;;;;;;7.85;3.17;;;;;;;;;;10431615;28;20044;-75
2023/12/09 07:38:20;;;;;;;8.13;3.28;;;;;;;;;;10435379;28;20056;-76
2023/12/09 07:43:24;;;;;;;6.25;2.50;;;;;;;;;;10431150;28;20828;-76
2023/12/09 07:48:27;;;;;;;3.47;1.77;;;;;;;;;;10436072;28;20640;-75
2023/12/09 07:53:30;;;;;;;9.00;3.15;;;;;;;;;;10437463;28;20052;-75
2023/12/09 07:58:34;;;;;;;7.80;2.72;;;;;;;;;;10437839;28;20056;-76
2023/12/09 08:03:37;;;;;;;4.72;2.20;;;;;;;;;;10437148;28;20045;-76
2023/12/09 08:08:40;;;;;;;3.08;1.35;;;;;;;;;;10429765;28;20045;-74
2023/12/09 08:13:44;;;;;;;8.65;3.40;;;;;;;;;;10437324;28;20048;-73
2023/12/09 08:18:46;;;;;;;7.13;3.45;;;;;;;;;;10438972;28;20060;-74
2023/12/09 08:23:49;;;;;;;4.20;2.35;;;;;;;;;;10434924;28;20041;-73
2023/12/09 08:28:53;;;;;;;10.77;4.00;;;;;;;;;;10437312;28;20133;-75
2023/12/09 08:33:56;;;;;;;10.10;3.85;;;;;;;;;;10436608;28;20128;-75
2023/12/09 08:38:59;;;;;;;19.83;7.10;;;;;;;;;;10441752;28;20045;-74
2023/12/09 08:44:03;;;;;;;45.80;10.10;;;;;;;;;;10438102;28;20526;-74
2023/12/09 08:49:06;;;;;;;61.85;13.70;;;;;;;;;;10438060;28;20176;-73
2023/12/09 08:54:08;;;;;;;17.30;5.78;;;;;;;;;;10434622;28;20033;-76
2023/12/09 08:59:13;;;;;;;15.10;4.90;;;;;;;;;;10428966;28;20136;-74
2023/12/09 09:04:18;;;;;;;10.95;5.60;;;;;;;;;;10431627;28;20056;-75
2023/12/09 09:09:21;;;;;;;3.33;1.90;;;;;;;;;;10437443;28;20049;-74
2023/12/09 09:14:24;;;;;;;42.95;9.50;;;;;;;;;;10427207;28;20037;-74
2023/12/09 09:19:27;;;;;;;14.77;5.32;;;;;;;;;;10429522;28;20068;-75
2023/12/09 09:24:30;;;;;;;32.90;8.65;;;;;;;;;;10437538;28;20043;-74
2023/12/09 09:29:34;;;;;;;15.35;4.93;;;;;;;;;;10431304;28;20072;-74
2023/12/09 09:34:37;;;;;;;35.45;9.77;;;;;;;;;;10427716;28;20186;-75
2023/12/09 09:39:39;;;;;;;7.25;2.72;;;;;;;;;;10433340;28;20123;-76
2023/12/09 09:44:46;;;;;;;18.88;6.03;;;;;;;;;;10432917;28;20041;-77
2023/12/09 09:49:50;;;;;;;9.32;3.10;;;;;;;;;;10433385;28;20106;-74
2023/12/09 09:54:53;;;;;;;;;;;;;;;;;;10429314;28;20088;-75
2023/12/09 09:59:58;;;;;;;5.85;3.25;;;;;;;;;;10429186;28;19983;-75
2023/12/09 10:05:01;;;;;;;8.65;3.50;;;;;;;;;;10423919;28;20414;-75
2023/12/09 10:10:05;;;;;;;7.45;3.47;;;;;;;;;;10425650;28;20163;-75
2023/12/09 10:15:10;;;;;;;8.68;3.85;;;;;;;;;;10422695;28;20110;-75
2023/12/09 10:20:15;;;;;;;8.40;3.47;;;;;;;;;;10425731;28;21851;-74
2023/12/09 10:25:21;;;;;;;8.05;3.47;;;;;;;;;;10426240;28;21581;-75
2023/12/09 10:30:25;;;;;;;5.35;2.90;;;;;;;;;;10425264;28;20048;-76
2023/12/09 10:35:28;;;;;;;8.85;4.28;;;;;;;;;;10419346;28;20043;-75
2023/12/09 10:40:32;;;;;;;13.43;6.47;;;;;;;;;;10418445;28;20069;-75
2023/12/09 10:45:36;;;;;;;9.90;4.50;;;;;;;;;;10421865;28;20068;-75
2023/12/09 10:50:39;;;;;;;7.55;4.30;;;;;;;;;;10421593;28;20056;-75
2023/12/09 10:55:42;;;;;;;7.37;3.77;;;;;;;;;;10429216;28;20041;-76
2023/12/09 11:00:46;;;;;;;4.00;2.40;;;;;;;;;;10421634;28;20382;-75
2023/12/09 11:05:51;;;;;;;2.97;2.05;;;;;;;;;;10427294;28;20206;-76
2023/12/09 11:10:54;;;;;;;3.50;1.90;;;;;;;;;;10432785;28;20037;-75
2023/12/09 11:16:11;;;;;;;4.18;2.40;;;;;;;;;;10430785;28;20129;-77
2023/12/09 11:21:17;;;;;;;3.58;2.05;;;;;;;;;;10428405;28;20430;-76
2023/12/09 11:26:27;;;;;;;4.38;2.20;;;;;;;;;;10430973;28;20049;-76
2023/12/09 11:31:33;;;;;;;9.48;4.70;;;;;;;;;;10430946;28;20072;-76
2023/12/09 11:36:38;;;;;;;11.13;8.85;;;;;;;;;;10430422;28;20041;-76
2023/12/09 11:41:41;;;;;;;7.95;4.80;;;;;;;;;;10428820;28;20078;-76
2023/12/09 11:46:46;;;;;;;2.38;1.73;;;;;;;;;;10432604;28;20037;-76
2023/12/09 11:51:50;;;;;;;2.20;1.40;;;;;;;;;;10432016;28;20096;-75
2023/12/09 11:56:53;;;;;;;2.88;1.52;;;;;;;;;;10429714;28;20033;-74
2023/12/09 12:01:55;;;;;;;4.15;1.83;;;;;;;;;;10426002;28;20102;-77
2023/12/09 12:06:59;;;;;;;2.20;1.42;;;;;;;;;;10431339;28;20050;-74
2023/12/09 12:12:02;;;;;;;3.58;2.00;;;;;;;;;;10430211;28;20552;-74
2023/12/09 12:17:05;;;;;;;6.30;3.00;;;;;;;;;;10426572;28;20029;-74
2023/12/09 12:22:09;;;;;;;3.42;1.70;;;;;;;;;;10426530;28;20131;-75
2023/12/09 12:27:12;;;;;;;2.88;1.60;;;;;;;;;;10427447;28;20084;-74
2023/12/09 12:32:15;;;;;;;4.10;1.60;;;;;;;;;;10424421;28;20494;-74
2023/12/09 12:37:19;;;;;;;2.58;1.42;;;;;;;;;;10425322;28;20060;-74
2023/12/09 12:42:22;;;;;;;5.60;1.50;;;;;;;;;;10425206;28;20397;-75
2023/12/09 12:47:24;;;;;;;2.63;1.53;;;;;;;;;;10427015;28;20060;-75
2023/12/09 12:52:30;;;;;;;3.00;1.42;;;;;;;;;;10428567;28;20523;-75
2023/12/09 12:57:32;;;;;;;1.95;1.25;;;;;;;;;;10433733;28;20037;-75
2023/12/09 13:02:35;;;;;;;8.57;3.03;;;;;;;;;;10426259;28;20042;-74
2023/12/09 13:07:43;;;;;;;7.75;2.67;;;;;;;;;;10428110;28;20394;-74
2023/12/09 13:12:48;;;;;;;2.00;0.95;;;;;;;;;;10431332;28;20410;-74
2023/12/09 13:17:51;;;;;;;5.03;2.25;;;;;;;;;;10427666;28;20057;-74
2023/12/09 13:22:55;;;;;;;7.82;2.75;;;;;;;;;;10427340;28;20045;-75
2023/12/09 13:28:00;;;;;;;3.45;1.30;;;;;;;;;;10425655;28;20396;-75
2023/12/09 13:33:04;;;;;;;4.53;2.20;;;;;;;;;;10424140;28;20037;-75
2023/12/09 13:38:08;;;;;;;3.08;1.10;;;;;;;;;;10427561;28;20135;-75
2023/12/09 13:43:11;;;;;;;5.75;1.90;;;;;;;;;;10424100;28;20505;-74
2023/12/09 13:48:14;;;;;;;1.58;0.90;;;;;;;;;;10424307;28;20179;-75
2023/12/09 13:53:19;;;;;;;3.13;1.20;;;;;;;;;;10424119;28;20522;-74
2023/12/09 13:58:21;;;;;;;;;;;;;;;;;;10428541;28;20585;-75
2023/12/09 14:03:24;;;;;;;2.60;1.02;;;;;;;;;;10424605;28;19935;-75
2023/12/09 14:08:28;;;;;;;3.85;0.82;;;;;;;;;;10428387;28;20056;-74
2023/12/09 14:13:39;;;;;;;2.33;1.23;;;;;;;;;;10437428;28;20192;-75
2023/12/09 14:18:42;;;;;;;1.45;1.13;;;;;;;;;;10439832;28;20045;-74
2023/12/09 14:23:46;;;;;;;5.00;2.33;;;;;;;;;;10432001;28;20045;-74
2023/12/09 14:28:49;;;;;;;3.13;1.92;;;;;;;;;;10441929;28;20578;-75
2023/12/09 14:33:51;;;;;;;1.50;1.13;;;;;;;;;;10437736;28;20159;-74
2023/12/09 14:38:56;;;;;;;2.28;1.38;;;;;;;;;;10436838;28;20045;-74
2023/12/09 14:43:59;;;;;;;3.17;1.80;;;;;;;;;;10435737;28;20041;-74
2023/12/09 14:49:10;;;;;;;5.47;1.95;;;;;;;;;;10444866;28;20060;-74
2023/12/09 14:54:16;;;;;;;6.85;1.70;;;;;;;;;;10441411;28;21166;-74
2023/12/09 14:59:22;;;;;;;1.92;0.80;;;;;;;;;;10440999;28;20174;-73
2023/12/09 15:04:25;;;;;;;4.95;2.20;;;;;;;;;;10435561;28;20037;-74
2023/12/09 15:09:30;;;;;;;4.45;2.15;;;;;;;;;;10442344;28;20090;-74
2023/12/09 15:14:33;;;;;;;7.00;2.50;;;;;;;;;;10431108;28;20098;-74
2023/12/09 15:19:36;;;;;;;7.63;1.40;;;;;;;;;;10438928;28;20040;-74
2023/12/09 15:24:42;;;;;;;4.10;1.13;;;;;;;;;;10443710;28;20099;-75
2023/12/09 15:29:45;;;;;;;2.83;1.40;;;;;;;;;;10437133;28;20083;-75
2023/12/09 15:34:50;;;;;;;5.38;2.03;;;;;;;;;;10443070;28;20069;-75
2023/12/09 15:39:54;;;;;;;1.73;1.30;;;;;;;;;;10438476;28;20706;-74
2023/12/09 15:45:00;;;;;;;7.97;3.05;;;;;;;;;;10439659;28;20119;-75
2023/12/09 15:50:06;;;;;;;3.38;1.75;;;;;;;;;;10429624;28;20045;-74
2023/12/09 15:55:10;;;;;;;7.83;2.90;;;;;;;;;;10430392;28;20510;-73
2023/12/09 16:00:14;;;;;;;3.97;2.20;;;;;;;;;;10425822;28;20605;-75
2023/12/09 16:05:16;;;;;;;6.00;2.90;;;;;;;;;;10424246;28;20044;-73
2023/12/09 16:10:20;;;;;;;1.13;1.00;;;;;;;;;;10428661;28;20311;-74
2023/12/09 16:15:23;;;;;;;;;;;;;;;;;;10426400;28;20057;-74
2023/12/09 16:20:26;;;;;;;4.38;2.25;;;;;;;;;;10427566;28;19928;-72
2023/12/09 16:25:30;;;;;;;5.20;2.40;;;;;;;;;;10429105;28;20064;-74
2023/12/09 16:30:33;;;;;;;10.35;3.78;;;;;;;;;;10433911;28;20052;-74
2023/12/09 16:35:36;;;;;;;6.28;2.65;;;;;;;;;;10422878;28;20048;-73
2023/12/09 16:40:39;;;;;;;4.28;1.88;;;;;;;;;;10429848;28;20053;-73
2023/12/09 16:45:42;;;;;;;7.63;2.95;;;;;;;;;;10435289;28;20041;-74
2023/12/09 16:50:45;;;;;;;1.90;1.58;;;;;;;;;;10431630;28;20521;-74
2023/12/09 16:55:49;;;;;;;6.90;3.10;;;;;;;;;;10428934;28;20135;-74
2023/12/09 17:00:52;;;;;;;7.35;2.38;;;;;;;;;;10430418;28;20057;-74
2023/12/09 17:05:55;;;;;;;11.75;4.00;;;;;;;;;;10432134;28;20545;-74
2023/12/09 17:11:01;;;;;;;6.25;2.78;;;;;;;;;;10425753;28;20189;-74
2023/12/09 17:16:04;;;;;;;5.95;2.50;;;;;;;;;;10437670;28;20143;-74
2023/12/09 17:21:07;;;;;;;9.57;5.28;;;;;;;;;;10427992;28;20123;-74
2023/12/09 17:26:11;;;;;;;8.02;4.40;;;;;;;;;;10424557;28;20599;-74
2023/12/09 17:31:14;;;;;;;11.95;5.97;;;;;;;;;;10428329;28;20179;-75
2023/12/09 17:36:17;;;;;;;7.68;3.67;;;;;;;;;;10427365;28;20045;-74
2023/12/09 17:41:21;;;;;;;4.45;2.13;;;;;;;;;;10443517;28;20067;-74
2023/12/09 17:46:24;;;;;;;7.60;3.53;;;;;;;;;;10429627;28;20548;-74
2023/12/09 17:51:27;;;;;;;7.43;2.47;;;;;;;;;;10427312;28;20060;-74
2023/12/09 17:56:31;;;;;;;6.57;3.80;;;;;;;;;;10427619;28;20037;-74
2023/12/09 18:01:33;;;;;;;6.97;3.53;;;;;;;;;;10432051;28;20108;-73
2023/12/09 18:06:36;;;;;;;8.13;3.10;;;;;;;;;;10428486;28;20474;-74
2023/12/09 18:11:40;;;;;;;7.50;3.63;;;;;;;;;;10424466;28;20646;-74
2023/12/09 18:16:43;;;;;;;6.85;2.17;;;;;;;;;;10429088;28;20130;-75
2023/12/09 18:21:46;;;;;;;7.95;3.13;;;;;;;;;;10428822;28;20128;-74
2023/12/09 18:26:50;;;;;;;6.13;2.72;;;;;;;;;;10424620;28;20776;-73
2023/12/09 18:31:52;;;;;;;7.32;2.83;;;;;;;;;;10430127;28;20757;-74
2023/12/09 18:36:55;;;;;;;9.43;2.83;;;;;;;;;;10432352;28;20127;-74
2023/12/09 18:41:59;;;;;;;11.15;3.92;;;;;;;;;;10441920;28;20132;-74
2023/12/09 18:47:02;;;;;;;8.73;4.43;;;;;;;;;;10438574;28;20037;-74
2023/12/09 18:52:05;;;;;;;6.57;2.95;;;;;;;;;;10435965;28;20048;-74
2023/12/09 18:57:09;;;;;;;11.70;4.93;;;;;;;;;;10440702;28;20025;-74
2023/12/09 19:02:11;;;;;;;6.82;3.38;;;;;;;;;;10437678;28;20051;-75
2023/12/09 19:07:17;;;;;;;11.70;5.40;;;;;;;;;;10441285;28;20040;-73
2023/12/09 19:12:22;;;;;;;12.77;5.20;;;;;;;;;;10434962;28;20399;-74
2023/12/09 19:17:25;;;;;;;8.70;3.88;;;;;;;;;;10437544;28;20115;-74
2023/12/09 19:22:28;;;;;;;5.57;2.88;;;;;;;;;;10443478;28;20375;-74
2023/12/09 19:27:32;;;;;;;6.55;3.42;;;;;;;;;;10445478;28;20430;-74
2023/12/09 19:32:34;;;;;;;14.57;7.05;;;;;;;;;;10445511;28;20401;-75
2023/12/09 19:37:38;;;;;;;14.35;6.07;;;;;;;;;;10444437;28;20033;-74
2023/12/09 19:42:42;;;;;;;13.23;6.00;;;;;;;;;;10450681;28;20502;-74
2023/12/09 19:47:45;;;;;;;9.90;4.57;;;;;;;;;;10447125;28;20040;-74
2023/12/09 19:52:47;;;;;;;3.65;2.05;;;;;;;;;;10449801;28;20090;-75
2023/12/09 19:57:51;;;;;;;4.47;2.50;;;;;;;;;;10449577;28;20558;-74
2023/12/09 20:02:55;;;;;;;6.28;3.17;;;;;;;;;;10443362;28;20564;-75
2023/12/09 20:07:58;;;;;;;6.28;3.47;;;;;;;;;;10447128;28;20045;-75
2023/12/09 20:13:02;;;;;;;12.02;4.00;;;;;;;;;;10443728;28;20126;-74
2023/12/09 20:18:04;;;;;;;3.30;2.20;;;;;;;;;;10444919;28;20132;-75
2023/12/09 20:23:07;;;;;;;6.60;2.67;;;;;;;;;;10443144;28;20065;-75
2023/12/09 20:28:12;;;;;;;6.40;3.03;;;;;;;;;;10449113;28;20061;-78
2023/12/09 20:33:15;;;;;;;8.50;2.50;;;;;;;;;;10444086;28;20041;-76
2023/12/09 20:38:18;;;;;;;8.93;4.22;;;;;;;;;;10445311;28;20037;-77
2023/12/09 20:43:22;;;;;;;11.27;4.03;;;;;;;;;;10440879;28;20060;-79
2023/12/09 20:48:25;;;;;;;3.70;2.08;;;;;;;;;;10443743;28;20521;-79
2023/12/09 20:53:28;;;;;;;5.47;2.65;;;;;;;;;;10450050;28;20482;-80
2023/12/09 20:58:31;;;;;;;7.97;3.20;;;;;;;;;;10444215;28;20037;-79
2023/12/09 21:03:34;;;;;;;6.80;2.65;;;;;;;;;;10443907;28;20127;-80
2023/12/09 21:08:38;;;;;;;5.72;2.63;;;;;;;;;;10443973;28;20098;-79
2023/12/09 21:13:42;;;;;;;7.00;3.17;;;;;;;;;;10446454;28;20128;-80
2023/12/09 21:18:44;;;;;;;8.48;3.70;;;;;;;;;;10444281;28;20295;-79
2023/12/09 21:23:47;;;;;;;57.13;22.35;;;;;;;;;;10442760;28;20067;-79
2023/12/09 21:28:53;;;;;;;9.57;3.45;;;;;;;;;;10441690;28;21277;-80
2023/12/09 21:33:55;;;;;;;7.60;2.53;;;;;;;;;;10443980;28;20532;-79
2023/12/09 21:38:58;;;;;;;3.70;1.70;;;;;;;;;;10440784;28;20538;-79
2023/12/09 21:44:02;;;;;;;6.20;2.67;;;;;;;;;;10443058;28;20048;-79
2023/12/09 21:49:05;;;;;;;6.30;3.03;;;;;;;;;;10444529;28;20557;-79
2023/12/09 21:54:08;;;;;;;4.05;2.17;;;;;;;;;;10444360;28;20414;-79
2023/12/09 21:59:12;;;;;;;1.80;1.17;;;;;;;;;;10446268;28;20666;-79
2023/12/09 22:04:15;;;;;;;1.73;1.35;;;;;;;;;;10441960;28;20097;-80
2023/12/09 22:09:18;;;;;;;2.65;1.05;;;;;;;;;;10444605;28;20044;-79
2023/12/09 22:14:21;;;;;;;3.75;2.05;;;;;;;;;;10442124;28;20045;-80
2023/12/09 22:19:25;;;;;;;2.47;1.02;;;;;;;;;;10445606;28;20151;-80
2023/12/09 22:24:28;;;;;;;2.35;0.85;;;;;;;;;;10444573;28;20544;-80
2023/12/09 22:29:34;;;;;;;1.13;1.02;;;;;;;;;;10442613;28;20116;-79
2023/12/09 22:34:37;;;;;;;3.00;1.38;;;;;;;;;;10436093;28;20045;-78
2023/12/09 22:39:40;;;;;;;3.33;1.85;;;;;;;;;;10457502;28;20056;-79
2023/12/09 22:44:44;;;;;;;2.30;1.17;;;;;;;;;;10441331;28;20045;-79
2023/12/09 22:49:46;;;;;;;2.10;1.25;;;;;;;;;;10439744;28;20057;-79
2023/12/09 22:54:49;;;;;;;1.20;0.90;;;;;;;;;;10441662;28;20061;-79
2023/12/09 22:59:53;;;;;;;3.25;1.10;;;;;;;;;;10440804;28;20094;-80
2023/12/09 23:04:56;;;;;;;1.23;0.80;;;;;;;;;;10439639;28;20068;-79
2023/12/09 23:09:59;;;;;;;1.00;0.57;;;;;;;;;;10436081;28;20696;-79
2023/12/09 23:15:03;;;;;;;1.42;0.70;;;;;;;;;;10427512;28;20045;-79
2023/12/09 23:20:06;;;;;;;;;;;;;;;;;;10426836;28;20037;-78
2023/12/09 23:25:09;;;;;;;1.05;0.70;;;;;;;;;;10423057;28;19920;-78
2023/12/09 23:30:13;;;;;;;0.45;0.40;;;;;;;;;;10424466;28;20048;-78
2023/12/09 23:35:16;;;;;;;1.58;0.60;;;;;;;;;;10422691;28;20445;-78
2023/12/09 23:40:18;;;;;;;1.80;1.02;;;;;;;;;;10426901;28;20090;-78
2023/12/09 23:45:22;;;;;;;2.25;1.00;;;;;;;;;;10425813;28;20131;-79
2023/12/09 23:50:25;;;;;;;0.55;0.55;;;;;;;;;;10426150;28;20040;-80
2023/12/09 23:55:28;;;;;;;1.40;0.65;;;;;;;;;;10421245;28;20045;-77
